Boeing 777-333ER from Air Canada at Frankfurt.
 Regi:C-FRAM  LARGER
 MSN Year:35250 2008
 Date of picture:2008-07-28 08:56
 Discription:Two months old after taken picture.
 Position:07R
 Flight: ARR YUL AC 874 Montreal Pierre Elliot Trudeau International Airport Canada
 Logs: YUL Montreal AC 874 Air Canada 8:55 AM 9:02 AM T-1 Landed On-time 77W
 Metar 28/07/2008 08:50 METAR EDDF 280850Z 08007KT CAVOK 28/14 Q1016 NOSIG=
 Hits: 96 ID: 1323

Debriefing: Photographed movements of Airports in NW-Europe.
The images of our site attendant is in authorisation from Queen of Sky.
Copying of images of this site have been prohibited in which manner without the authorisation of the photographer.
In behalf of the crew :"Thank you visiting us" - Contact
Factsheets Boeing, 777-333ER, Air Canada, made by De Plane! © 2006 - 2022 All rights reserved


.